createdAt,value
2019-05-03T00:02:06.420Z,10.99
2019-05-03T00:04:36.297Z,10.94
2019-05-03T00:07:05.349Z,10.95
2019-05-03T00:09:34.247Z,10.93
2019-05-03T00:12:03.105Z,10.89
2019-05-03T00:14:32.538Z,10.90
2019-05-03T00:17:02.360Z,10.87
2019-05-03T00:19:32.712Z,10.86
2019-05-03T00:22:02.138Z,10.84
2019-05-03T00:24:32.125Z,10.81
2019-05-03T00:27:01.960Z,10.79
2019-05-03T00:29:32.512Z,10.81
2019-05-03T00:32:01.961Z,10.78
2019-05-03T00:34:36.561Z,10.77
2019-05-03T00:37:08.868Z,10.78
2019-05-03T00:39:45.130Z,10.74
2019-05-03T00:42:14.063Z,10.73
2019-05-03T00:44:42.967Z,10.72
2019-05-03T00:47:12.606Z,10.71
2019-05-03T00:49:42.579Z,10.71
2019-05-03T00:52:11.769Z,10.68
2019-05-03T00:54:42.362Z,10.66
2019-05-03T00:57:12.107Z,10.67
2019-05-03T00:59:42.042Z,10.64
2019-05-03T01:02:11.837Z,10.67
2019-05-03T01:04:42.732Z,10.68
2019-05-03T01:07:11.982Z,10.63
2019-05-03T01:09:42.449Z,10.66
2019-05-03T01:12:12.625Z,10.67
2019-05-03T01:14:43.185Z,10.69
2019-05-03T01:17:12.297Z,10.70
2019-05-03T01:19:42.631Z,10.66
2019-05-03T01:22:11.950Z,10.63
2019-05-03T01:24:42.721Z,10.58
2019-05-03T01:27:12.459Z,10.57
2019-05-03T01:29:42.453Z,10.56
2019-05-03T01:32:11.584Z,10.55
2019-05-03T01:34:41.615Z,10.56
2019-05-03T01:37:11.947Z,10.57
2019-05-03T01:39:42.153Z,10.58
2019-05-03T01:42:11.957Z,10.57
2019-05-03T01:44:42.613Z,10.57
2019-05-03T01:47:16.269Z,10.61
2019-05-03T01:49:55.351Z,10.60
2019-05-03T01:52:28.364Z,10.57
2019-05-03T01:54:57.396Z,10.56
2019-05-03T01:57:26.422Z,10.55
2019-05-03T01:59:55.423Z,10.59
2019-05-03T02:03:01.704Z,10.52
2019-05-03T02:05:43.927Z,10.55
2019-05-03T02:08:14.057Z,10.55
2019-05-03T02:10:43.739Z,10.55
2019-05-03T02:13:12.719Z,10.55
2019-05-03T02:15:42.194Z,10.54
2019-05-03T02:18:14.949Z,10.53
2019-05-03T02:20:42.372Z,10.52
2019-05-03T02:23:11.919Z,10.53
2019-05-03T02:25:41.869Z,10.45
2019-05-03T02:28:12.656Z,10.48
2019-05-03T02:30:44.100Z,10.48
2019-05-03T02:33:13.449Z,10.50
2019-05-03T02:35:43.078Z,10.49
2019-05-03T02:38:13.664Z,10.51
2019-05-03T02:40:43.154Z,10.46
2019-05-03T02:43:28.565Z,10.48
2019-05-03T02:46:36.082Z,10.46
2019-05-03T02:49:20.997Z,10.44
2019-05-03T02:51:50.012Z,10.39
2019-05-03T02:54:18.974Z,10.45
2019-05-03T02:56:48.130Z,10.47
2019-05-03T02:59:17.458Z,10.42
2019-05-03T03:01:46.876Z,10.43
2019-05-03T03:04:16.084Z,10.43
2019-05-03T03:06:46.506Z,10.39
2019-05-03T03:09:16.936Z,10.37
2019-05-03T03:11:46.862Z,10.37
2019-05-03T03:14:16.974Z,10.37
2019-05-03T03:16:50.006Z,10.37
2019-05-03T03:19:18.923Z,10.38
2019-05-03T03:21:49.149Z,10.34
2019-05-03T03:24:19.991Z,10.34
2019-05-03T03:26:50.419Z,10.29
2019-05-03T03:29:25.223Z,10.30
2019-05-03T03:32:19.618Z,10.21
2019-05-03T03:35:11.643Z,10.16
2019-05-03T03:37:37.723Z,10.18
2019-05-03T03:40:07.016Z,10.16
2019-05-03T03:42:38.960Z,10.13
2019-05-03T03:45:09.009Z,10.14
2019-05-03T03:47:56.666Z,10.07
2019-05-03T03:50:27.910Z,10.08
2019-05-03T03:52:57.658Z,10.05
2019-05-03T03:55:56.421Z,10.04
2019-05-03T03:58:27.407Z,10.03
2019-05-03T04:00:56.412Z,10.05
2019-05-03T04:03:26.132Z,10.02
2019-05-03T04:06:26.673Z,10.05
2019-05-03T04:08:57.714Z,10.04
2019-05-03T04:11:27.924Z,9.99
2019-05-03T04:13:57.121Z,10.00
2019-05-03T04:16:36.533Z,10.01
2019-05-03T04:19:10.784Z,9.99
2019-05-03T04:21:45.137Z,9.97
2019-05-03T04:24:16.129Z,9.93
2019-05-03T04:26:45.343Z,9.95
2019-05-03T04:29:16.048Z,9.93
2019-05-03T04:31:45.737Z,9.94
2019-05-03T04:34:16.312Z,9.93
2019-05-03T04:36:46.174Z,9.88
2019-05-03T04:39:19.674Z,9.82
2019-05-03T04:41:45.853Z,9.84
2019-05-03T04:44:15.428Z,9.82
2019-05-03T04:46:46.492Z,9.78
2019-05-03T04:49:15.265Z,9.75
2019-05-03T04:51:46.452Z,9.75
2019-05-03T04:54:39.096Z,9.71
2019-05-03T04:57:08.070Z,9.69
2019-05-03T04:59:39.382Z,9.65
2019-05-03T05:02:15.903Z,9.62
2019-05-03T05:04:46.412Z,9.56
2019-05-03T05:07:15.789Z,9.53
2019-05-03T05:09:46.882Z,9.48
2019-05-03T05:12:16.415Z,9.47
2019-05-03T05:14:45.921Z,9.44
2019-05-03T05:17:17.646Z,9.42
2019-05-03T05:19:52.433Z,9.40
2019-05-03T05:22:24.724Z,9.38
2019-05-03T05:24:55.216Z,9.36
2019-05-03T05:27:29.756Z,9.31
2019-05-03T05:30:00.210Z,9.30
2019-05-03T05:32:29.477Z,9.29
2019-05-03T05:34:58.448Z,9.32
2019-05-03T05:37:27.744Z,9.29
2019-05-03T05:39:56.713Z,9.30
2019-05-03T05:42:25.556Z,9.31
2019-05-03T05:44:55.697Z,9.32
2019-05-03T05:47:49.385Z,9.32
2019-05-03T05:50:30.367Z,9.30
2019-05-03T05:52:59.389Z,9.34
2019-05-03T05:55:46.234Z,9.35
2019-05-03T05:58:21.973Z,9.36
2019-05-03T06:01:00.120Z,9.42
2019-05-03T06:03:29.082Z,9.40
2019-05-03T06:06:00.044Z,9.40
2019-05-03T06:08:41.150Z,9.41
2019-05-03T06:11:25.803Z,9.42
2019-05-03T06:14:19.873Z,9.38
2019-05-03T06:16:59.671Z,9.40
2019-05-03T06:19:34.535Z,9.41
2019-05-03T06:22:23.207Z,9.36
2019-05-03T06:24:57.619Z,9.40
2019-05-03T06:27:31.539Z,9.43
2019-05-03T06:30:06.119Z,9.38
2019-05-03T06:32:37.599Z,9.46
2019-05-03T06:35:06.736Z,9.52
2019-05-03T06:37:41.404Z,9.56
2019-05-03T06:40:10.776Z,9.58
2019-05-03T06:42:51.596Z,9.66
2019-05-03T06:45:11.856Z,9.65
2019-05-03T06:47:48.073Z,9.67
2019-05-03T06:50:14.507Z,9.67
2019-05-03T06:52:44.569Z,9.70
2019-05-03T06:55:14.553Z,9.69
2019-05-03T06:57:49.395Z,9.66
2019-05-03T07:00:46.921Z,9.65
2019-05-03T07:03:44.768Z,9.65
2019-05-03T07:06:39.437Z,9.63
2019-05-03T07:09:20.067Z,9.61
2019-05-03T07:11:49.139Z,9.58
2019-05-03T07:14:18.014Z,9.59
2019-05-03T07:16:46.959Z,9.61
2019-05-03T07:19:15.902Z,9.69
2019-05-03T07:21:44.883Z,9.75
2019-05-03T07:24:14.686Z,9.77
2019-05-03T07:26:44.808Z,9.80
2019-05-03T07:29:15.225Z,9.84
2019-05-03T07:31:44.730Z,9.87
2019-05-03T07:34:15.560Z,9.93
2019-05-03T07:36:44.784Z,9.90
2019-05-03T07:39:14.523Z,9.90
2019-05-03T07:41:44.668Z,9.88
2019-05-03T07:44:15.224Z,9.91
2019-05-03T07:46:45.159Z,9.95
2019-05-03T07:49:15.324Z,9.99
2019-05-03T07:51:44.876Z,9.97
2019-05-03T07:54:15.664Z,10.04
2019-05-03T07:56:50.144Z,10.15
2019-05-03T07:59:19.020Z,10.20
2019-05-03T08:01:50.616Z,10.32
2019-05-03T08:04:19.465Z,10.35
2019-05-03T08:06:48.381Z,10.31
2019-05-03T08:09:17.571Z,10.37
2019-05-03T08:11:46.430Z,10.35
2019-05-03T08:14:18.086Z,10.24
2019-05-03T08:16:46.118Z,10.15
2019-05-03T08:19:15.313Z,10.17
2019-05-03T08:21:45.286Z,10.20
2019-05-03T08:24:14.912Z,10.23
2019-05-03T08:26:45.311Z,10.25
2019-05-03T08:29:18.575Z,10.35
2019-05-03T08:32:07.382Z,10.36
2019-05-03T08:34:55.632Z,10.33
2019-05-03T08:37:28.049Z,10.33
2019-05-03T08:39:57.211Z,10.35
2019-05-03T08:42:26.586Z,10.33
2019-05-03T08:44:55.521Z,10.26
2019-05-03T08:47:24.853Z,10.28
2019-05-03T08:49:59.628Z,10.24
2019-05-03T08:52:28.522Z,10.26
2019-05-03T08:54:57.495Z,10.29
2019-05-03T08:57:26.445Z,10.31
2019-05-03T08:59:55.303Z,10.40
2019-05-03T09:02:25.801Z,10.46
2019-05-03T09:04:55.010Z,10.53
2019-05-03T09:07:25.331Z,10.59
2019-05-03T09:10:05.278Z,10.55
2019-05-03T09:12:55.547Z,10.58
2019-05-03T09:15:24.949Z,10.43
2019-05-03T09:17:55.258Z,10.40
2019-05-03T09:20:25.052Z,10.32
2019-05-03T09:22:54.958Z,10.26
2019-05-03T09:25:24.798Z,10.13
2019-05-03T09:27:55.206Z,9.99
2019-05-03T09:30:25.143Z,9.99
2019-05-03T09:32:55.660Z,9.99
2019-05-03T09:35:32.149Z,9.99
2019-05-03T09:37:55.738Z,10.17
2019-05-03T09:40:24.723Z,10.30
2019-05-03T09:42:55.101Z,10.35
2019-05-03T09:45:24.642Z,10.41
2019-05-03T09:47:55.206Z,10.50
2019-05-03T09:50:24.692Z,10.84
2019-05-03T09:52:55.445Z,10.92
2019-05-03T09:55:29.572Z,11.26
2019-05-03T09:57:58.545Z,11.37
2019-05-03T10:00:27.482Z,11.66
2019-05-03T10:02:56.343Z,11.63
2019-05-03T10:05:27.373Z,11.70
2019-05-03T10:07:56.383Z,11.75
2019-05-03T10:10:25.272Z,11.97
2019-05-03T10:12:55.033Z,12.05
2019-05-03T10:15:42.029Z,11.96
2019-05-03T10:18:18.141Z,11.91
2019-05-03T10:20:49.814Z,12.28
2019-05-03T10:23:40.861Z,12.05
2019-05-03T10:26:10.859Z,11.97
2019-05-03T10:28:43.151Z,12.20
2019-05-03T10:31:17.518Z,12.29
2019-05-03T10:34:00.365Z,12.93
2019-05-03T10:36:29.500Z,13.13
2019-05-03T10:39:05.560Z,13.23
2019-05-03T10:41:40.461Z,13.21
2019-05-03T10:44:15.097Z,13.12
2019-05-03T10:46:50.572Z,13.10
2019-05-03T10:49:24.530Z,13.06
2019-05-03T10:52:02.087Z,12.90
2019-05-03T10:54:36.531Z,12.84
2019-05-03T10:57:17.025Z,12.74
2019-05-03T10:59:48.812Z,12.61
2019-05-03T11:02:36.615Z,12.47
2019-05-03T11:05:10.333Z,12.32
2019-05-03T11:07:41.775Z,12.20
2019-05-03T11:10:19.042Z,12.10
2019-05-03T11:12:50.745Z,12.07
2019-05-03T11:15:22.740Z,12.14
2019-05-03T11:17:55.636Z,12.37
2019-05-03T11:20:38.716Z,12.62
2019-05-03T11:23:11.116Z,12.77
2019-05-03T11:25:45.269Z,12.86
2019-05-03T11:28:24.808Z,12.91
2019-05-03T11:31:02.319Z,12.95
2019-05-03T11:33:39.318Z,13.04
2019-05-03T11:36:16.911Z,13.17
2019-05-03T11:38:49.009Z,13.36
2019-05-03T11:41:30.266Z,13.45
2019-05-03T11:43:59.620Z,13.59
2019-05-03T11:46:55.411Z,13.61
2019-05-03T11:49:29.124Z,13.69
2019-05-03T11:52:06.267Z,13.66
2019-05-03T11:54:35.907Z,14.01
2019-05-03T11:57:09.739Z,14.11
2019-05-03T11:59:38.777Z,14.14
2019-05-03T12:02:24.672Z,14.00
2019-05-03T12:04:55.273Z,13.84
2019-05-03T12:07:39.920Z,13.90
2019-05-03T12:10:20.616Z,14.12
2019-05-03T12:12:48.516Z,14.04
2019-05-03T12:15:22.900Z,14.22
2019-05-03T12:17:59.406Z,14.26
2019-05-03T12:20:31.755Z,14.34
2019-05-03T12:23:09.630Z,14.44
2019-05-03T12:25:45.544Z,14.42
2019-05-03T12:28:16.361Z,14.23
2019-05-03T12:30:47.497Z,14.15
2019-05-03T12:33:26.128Z,14.09
2019-05-03T12:35:55.514Z,14.37
2019-05-03T12:38:29.490Z,14.55
2019-05-03T12:41:02.226Z,14.65
2019-05-03T12:43:37.614Z,14.66
2019-05-03T12:46:16.896Z,14.69
2019-05-03T12:48:45.655Z,14.74
2019-05-03T12:51:20.551Z,14.57
2019-05-03T12:53:55.048Z,14.35
2019-05-03T12:56:31.043Z,14.22
2019-05-03T12:59:05.922Z,14.21
2019-05-03T13:02:02.087Z,14.30
2019-05-03T13:04:33.459Z,14.35
2019-05-03T13:07:31.333Z,14.23
2019-05-03T13:10:08.833Z,14.22
2019-05-03T13:12:52.761Z,14.03
2019-05-03T13:15:21.276Z,13.89
2019-05-03T13:17:50.300Z,13.82
2019-05-03T13:20:25.455Z,13.72
2019-05-03T13:22:59.183Z,13.74
2019-05-03T13:25:29.384Z,13.67
2019-05-03T13:28:10.413Z,13.68
2019-05-03T13:30:45.301Z,13.58
2019-05-03T13:33:18.212Z,13.58
2019-05-03T13:35:55.058Z,13.62
2019-05-03T13:38:34.872Z,13.62
2019-05-03T13:41:08.566Z,13.72
2019-05-03T13:43:41.123Z,13.93
2019-05-03T13:46:15.644Z,13.88
2019-05-03T13:48:49.065Z,13.77
2019-05-03T13:51:17.051Z,13.98
2019-05-03T13:53:45.987Z,14.34
2019-05-03T13:56:16.001Z,14.43
2019-05-03T13:58:44.953Z,14.56
2019-05-03T14:01:14.711Z,14.50
2019-05-03T14:03:45.262Z,14.36
2019-05-03T14:06:14.347Z,14.51
2019-05-03T14:08:45.391Z,14.51
2019-05-03T14:11:15.567Z,14.60
2019-05-03T14:13:44.655Z,14.85
2019-05-03T14:16:14.399Z,14.91
2019-05-03T14:18:45.633Z,14.67
2019-05-03T14:21:22.067Z,14.66
2019-05-03T14:24:09.536Z,14.77
2019-05-03T14:26:39.105Z,14.82
2019-05-03T14:29:08.034Z,14.96
2019-05-03T14:31:37.022Z,14.73
2019-05-03T14:34:06.172Z,14.46
2019-05-03T14:36:35.894Z,14.29
2019-05-03T14:39:09.772Z,14.25
2019-05-03T14:41:37.893Z,14.19
2019-05-03T14:44:06.875Z,14.45
2019-05-03T14:46:36.308Z,14.44
2019-05-03T14:49:05.639Z,14.40
2019-05-03T14:51:36.851Z,14.12
2019-05-03T14:54:06.313Z,14.00
2019-05-03T14:56:42.155Z,13.88
2019-05-03T14:59:49.604Z,13.77
2019-05-03T15:02:40.033Z,13.73
2019-05-03T15:04:58.543Z,14.02
2019-05-03T15:07:27.438Z,13.97
2019-05-03T15:09:56.428Z,13.98
2019-05-03T15:12:25.428Z,13.90
2019-05-03T15:14:54.714Z,13.84
2019-05-03T15:17:24.681Z,13.81
2019-05-03T15:19:54.745Z,13.75
2019-05-03T15:22:25.313Z,13.68
2019-05-03T15:24:54.653Z,13.60
2019-05-03T15:27:25.724Z,13.59
2019-05-03T15:29:55.498Z,13.58
2019-05-03T15:32:24.635Z,13.50
2019-05-03T15:34:57.609Z,13.48
2019-05-03T15:37:29.551Z,13.44
2019-05-03T15:39:58.779Z,13.41
2019-05-03T15:42:28.516Z,13.34
2019-05-03T15:45:37.613Z,13.32
2019-05-03T15:48:26.047Z,13.32
2019-05-03T15:50:55.448Z,13.34
2019-05-03T15:53:27.497Z,13.27
2019-05-03T15:55:56.506Z,13.26
2019-05-03T15:58:25.468Z,13.18
2019-05-03T16:00:55.361Z,13.16
2019-05-03T16:03:27.852Z,13.11
2019-05-03T16:05:58.055Z,13.03
2019-05-03T16:08:30.553Z,12.93
2019-05-03T16:10:59.533Z,12.82
2019-05-03T16:13:28.385Z,12.70
2019-05-03T16:15:57.409Z,12.69
2019-05-03T16:18:26.795Z,12.61
2019-05-03T16:20:57.197Z,12.59
2019-05-03T16:23:27.469Z,12.55
2019-05-03T16:25:57.070Z,12.56
2019-05-03T16:28:32.907Z,12.59
2019-05-03T16:31:12.409Z,12.60
2019-05-03T16:33:41.455Z,12.59
2019-05-03T16:36:10.447Z,12.56
2019-05-03T16:38:40.041Z,12.54
2019-05-03T16:41:09.064Z,12.52
2019-05-03T16:43:38.097Z,12.48
2019-05-03T16:46:07.204Z,12.46
2019-05-03T16:48:36.566Z,12.38
2019-05-03T16:51:05.651Z,12.36
2019-05-03T16:53:35.028Z,12.29
2019-05-03T16:56:05.384Z,12.29
2019-05-03T16:58:41.079Z,12.22
2019-05-03T17:01:10.096Z,12.27
2019-05-03T17:03:45.714Z,12.24
2019-05-03T17:06:48.515Z,12.18
2019-05-03T17:09:36.350Z,12.15
2019-05-03T17:12:06.934Z,12.11
2019-05-03T17:14:35.792Z,12.06
2019-05-03T17:17:07.095Z,12.05
2019-05-03T17:19:35.534Z,12.05
2019-05-03T17:22:05.581Z,12.03
2019-05-03T17:24:35.338Z,11.98
2019-05-03T17:27:04.846Z,11.92
2019-05-03T17:29:35.081Z,11.89
2019-05-03T17:32:04.935Z,11.85
2019-05-03T17:34:34.760Z,11.83
2019-05-03T17:37:05.037Z,11.84
2019-05-03T17:39:51.738Z,11.80
2019-05-03T17:42:42.954Z,11.82
2019-05-03T17:45:14.662Z,11.80
2019-05-03T17:47:45.438Z,11.72
2019-05-03T17:50:14.819Z,11.65
2019-05-03T17:52:51.298Z,11.65
2019-05-03T17:55:39.237Z,11.61
2019-05-03T17:58:15.006Z,11.48
2019-05-03T18:01:20.853Z,11.43
2019-05-03T18:04:06.081Z,11.37
2019-05-03T18:06:28.995Z,11.30
2019-05-03T18:09:23.050Z,11.25
2019-05-03T18:11:57.830Z,11.19
2019-05-03T18:14:26.881Z,11.07
2019-05-03T18:16:56.507Z,11.05
2019-05-03T18:19:25.649Z,11.04
2019-05-03T18:21:55.450Z,11.02
2019-05-03T18:24:24.859Z,11.00
2019-05-03T18:26:54.008Z,11.00
2019-05-03T18:29:25.140Z,11.02
2019-05-03T18:31:56.473Z,11.00
2019-05-03T18:34:25.640Z,10.90
2019-05-03T18:36:54.666Z,10.88
2019-05-03T18:39:25.212Z,10.81
2019-05-03T18:41:54.483Z,10.77
2019-05-03T18:44:31.320Z,10.71
2019-05-03T18:47:06.190Z,10.67
2019-05-03T18:49:41.328Z,10.54
2019-05-03T20:56:16.409Z,9.78
2019-05-03T20:58:45.326Z,9.73
2019-05-03T21:01:15.286Z,9.69
2019-05-03T21:03:45.514Z,9.67
2019-05-03T21:06:17.695Z,9.65
2019-05-03T21:08:57.920Z,9.59
2019-05-03T21:11:27.014Z,9.58
2019-05-03T21:13:55.984Z,9.58
2019-05-03T21:16:49.950Z,9.59
2019-05-03T21:19:44.694Z,9.55
2019-05-03T21:22:36.237Z,9.56
2019-05-03T21:25:30.069Z,9.51
2019-05-03T21:27:59.081Z,9.54
2019-05-03T21:30:35.216Z,9.49
2019-05-03T21:33:05.462Z,9.43
2019-05-03T21:35:41.485Z,9.46
2019-05-03T21:38:06.138Z,9.49
2019-05-03T21:40:34.992Z,9.51
2019-05-03T21:43:04.992Z,9.48
2019-05-03T21:45:46.373Z,9.49
2019-05-03T21:48:19.688Z,9.37
2019-05-03T21:50:48.684Z,9.34
2019-05-03T21:53:17.648Z,9.27
2019-05-03T21:55:46.454Z,9.34
2019-05-03T21:58:16.514Z,9.28
2019-05-03T22:01:05.223Z,9.15
2019-05-03T22:03:35.455Z,9.16
2019-05-03T22:06:04.705Z,9.04
2019-05-03T22:08:35.079Z,9.00
2019-05-03T22:11:05.364Z,9.01
2019-05-03T22:13:34.949Z,8.86
2019-05-03T22:16:11.061Z,8.79
2019-05-03T22:18:40.172Z,8.69
2019-05-03T22:21:17.406Z,8.70
2019-05-03T22:24:11.115Z,8.65
2019-05-03T22:27:08.319Z,8.60
2019-05-03T22:29:37.069Z,8.55
2019-05-03T22:32:06.053Z,8.53
2019-05-03T22:34:35.045Z,8.51
2019-05-03T22:37:04.575Z,8.45
2019-05-03T22:39:33.747Z,8.42
2019-05-03T22:42:04.454Z,8.42
2019-05-03T22:44:35.470Z,8.37
2019-05-03T22:47:05.527Z,8.28
2019-05-03T22:49:37.045Z,8.30
2019-05-03T22:52:05.053Z,8.30
2019-05-03T22:54:34.614Z,8.33
2019-05-03T22:57:04.803Z,8.34
2019-05-03T22:59:34.440Z,8.30
2019-05-03T23:02:03.843Z,8.31
2019-05-03T23:04:33.087Z,8.28
2019-05-03T23:07:02.175Z,8.27
2019-05-03T23:09:31.374Z,8.21
2019-05-03T23:12:00.325Z,8.19
2019-05-03T23:14:29.241Z,8.16
2019-05-03T23:16:58.169Z,8.16
2019-05-03T23:19:27.122Z,8.05
2019-05-03T23:22:05.014Z,8.02
2019-05-03T23:24:36.296Z,8.00
2019-05-03T23:27:05.414Z,7.91
2019-05-03T23:29:34.939Z,7.92
2019-05-03T23:32:04.741Z,7.85
2019-05-03T23:34:35.163Z,7.78
2019-05-03T23:37:05.589Z,7.72
2019-05-03T23:39:34.644Z,7.59
2019-05-03T23:42:04.951Z,7.45
2019-05-03T23:44:35.189Z,7.30
2019-05-03T23:47:11.650Z,7.28
2019-05-03T23:49:40.445Z,7.19
2019-05-03T23:52:28.434Z,7.11
2019-05-03T23:55:00.827Z,7.00
2019-05-03T23:57:29.669Z,6.94
2019-05-03T23:59:58.688Z,6.98
